Time;durP1;ratioP1;P1;durP2;ratioP2;P2;SDS_P1;SDS_P2;PMS_P1;PMS_P2;Temp;Humidity;BMP_temperature;BMP_pressure;BME280_temperature;BME280_humidity;BME280_pressure;Samples;Min_cycle;Max_cycle;Signal;HPM_P1;HPM_P2
2022/06/26 00:00:07;;;;;;;0.63;0.40;;;;;;;28.02;43.07;98809.97;5130533;27;20039;-59
2022/06/26 00:02:32;;;;;;;0.60;0.50;;;;;;;28.02;43.12;98809.97;5130680;28;20521;-58
2022/06/26 00:04:58;;;;;;;0.57;0.40;;;;;;;28.01;43.09;98808.41;5130677;27;20039;-58
2022/06/26 00:07:24;;;;;;;0.73;0.50;;;;;;;28.02;43.33;98812.78;5130542;27;20046;-59
2022/06/26 00:09:49;;;;;;;0.65;0.40;;;;;;;27.98;43.14;98805.22;5130522;27;20039;-58
2022/06/26 00:12:14;;;;;;;0.50;0.47;;;;;;;28.00;43.12;98812.41;5130372;27;20507;-58
2022/06/26 00:14:40;;;;;;;0.73;0.40;;;;;;;27.99;42.98;98814.44;5130559;27;20544;-58
2022/06/26 00:17:05;;;;;;;2.47;0.50;;;;;;;27.95;43.09;98808.91;5130719;27;20039;-58
2022/06/26 00:19:34;;;;;;;0.80;0.50;;;;;;;27.99;43.36;98814.44;5130537;28;20304;-59
2022/06/26 00:21:59;;;;;;;0.50;0.40;;;;;;;27.97;43.27;98817.69;5130118;27;20039;-58
2022/06/26 00:24:25;;;;;;;0.45;0.40;;;;;;;27.98;43.30;98827.69;5130370;28;20046;-58
2022/06/26 00:26:50;;;;;;;0.50;0.40;;;;;;;27.98;43.22;98827.69;5130417;27;20502;-58
2022/06/26 00:29:15;;;;;;;0.68;0.50;;;;;;;27.97;43.34;98825.34;5130533;27;20042;-59
2022/06/26 00:31:41;;;;;;;0.30;0.30;;;;;;;27.98;43.33;98821.28;5130470;28;20051;-62
2022/06/26 00:34:06;;;;;;;0.60;0.45;;;;;;;27.97;43.36;98820.50;5130585;27;20047;-58
2022/06/26 00:36:32;;;;;;;0.68;0.40;;;;;;;27.96;43.52;98824.56;5130449;28;20069;-58
2022/06/26 00:38:57;;;;;;;0.68;0.50;;;;;;;27.96;43.45;98823.75;5130371;27;20063;-58
2022/06/26 00:41:23;;;;;;;0.77;0.50;;;;;;;27.96;43.35;98818.13;5130181;27;20320;-58
2022/06/26 00:43:48;;;;;;;0.65;0.50;;;;;;;27.96;43.36;98804.09;5130272;27;20453;-58
2022/06/26 00:46:14;;;;;;;0.60;0.50;;;;;;;27.94;43.35;98810.16;5130248;27;20089;-58
2022/06/26 00:48:39;;;;;;;0.80;0.50;;;;;;;27.95;43.40;98810.94;5130132;28;20042;-58
2022/06/26 00:51:05;;;;;;;1.05;0.60;;;;;;;27.94;43.53;98810.16;5130004;28;20039;-58
2022/06/26 00:53:31;;;;;;;0.43;0.40;;;;;;;27.95;43.38;98817.34;5130106;28;20035;-58
2022/06/26 00:55:57;;;;;;;0.45;0.40;;;;;;;27.97;43.25;98816.91;5130205;27;20070;-58
2022/06/26 00:58:23;;;;;;;0.55;0.40;;;;;;;27.94;43.36;98812.97;5130119;27;20407;-59
2022/06/26 01:00:48;;;;;;;0.63;0.43;;;;;;;27.94;43.45;98810.16;5130167;27;20461;-58
2022/06/26 01:03:14;;;;;;;0.73;0.40;;;;;;;27.95;43.36;98808.13;5133072;28;20502;-58
2022/06/26 01:05:39;;;;;;;0.60;0.47;;;;;;;27.95;43.29;98810.94;5133436;28;20050;-58
2022/06/26 01:08:07;;;;;;;0.55;0.43;;;;;;;27.94;43.26;98803.75;5133287;27;20046;-58
2022/06/26 01:10:33;;;;;;;0.40;0.40;;;;;;;27.93;43.28;98794.50;5133468;28;20043;-58
2022/06/26 01:12:59;;;;;;;0.70;0.50;;;;;;;27.93;43.47;98802.13;5133158;27;20487;-58
2022/06/26 01:15:26;;;;;;;0.47;0.40;;;;;;;27.92;43.17;98809.78;5133572;28;20054;-58
2022/06/26 01:17:51;;;;;;;0.60;0.50;;;;;;;27.93;43.22;98813.38;5115107;28;20559;-58
2022/06/26 01:20:17;;;;;;;0.82;0.52;;;;;;;27.94;43.33;98812.16;5133092;27;20059;-58
2022/06/26 01:22:43;;;;;;;0.70;0.50;;;;;;;27.93;43.25;98802.94;5133056;28;20450;-58
2022/06/26 01:25:09;;;;;;;1.00;0.60;;;;;;;27.92;43.34;98792.91;5133268;28;20419;-57
2022/06/26 01:27:42;;;;;;;0.60;0.47;;;;;;;27.91;43.33;98808.19;5133214;28;20039;-58
2022/06/26 01:30:09;;;;;;;0.50;0.43;;;;;;;27.94;43.12;98810.16;5133011;28;20066;-58
2022/06/26 01:32:34;;;;;;;0.90;0.57;;;;;;;27.93;43.26;98799.31;5132649;27;20138;-58
2022/06/26 01:35:00;;;;;;;0.50;0.50;;;;;;;27.92;43.16;98792.91;5133011;27;20118;-58
2022/06/26 01:37:25;;;;;;;0.50;0.50;;;;;;;27.91;43.29;98791.34;5132957;27;20078;-58
2022/06/26 01:39:50;;;;;;;0.50;0.32;;;;;;;27.94;43.38;98792.50;5132806;27;20051;-58
2022/06/26 01:42:16;;;;;;;0.70;0.50;;;;;;;27.92;43.16;98784.47;5132556;27;20124;-58
2022/06/26 01:44:41;;;;;;;0.57;0.38;;;;;;;27.93;43.29;98779.63;5133112;27;20047;-58
2022/06/26 01:47:07;;;;;;;0.57;0.50;;;;;;;27.92;43.50;98776.03;5132871;27;20054;-58
2022/06/26 01:49:33;;;;;;;0.68;0.50;;;;;;;27.91;43.42;98766.03;5113119;27;20056;-58
2022/06/26 01:51:58;;;;;;;0.60;0.50;;;;;;;27.92;43.34;98775.25;5132631;27;20039;-58
2022/06/26 01:54:24;;;;;;;0.47;0.40;;;;;;;27.91;43.41;98782.09;5132650;27;20035;-58
2022/06/26 01:56:49;;;;;;;0.50;0.40;;;;;;;27.91;43.33;98784.91;5132483;27;20039;-58
2022/06/26 01:59:15;;;;;;;0.35;0.30;;;;;;;27.90;43.11;98788.97;5132824;28;20107;-58
2022/06/26 02:01:40;;;;;;;0.90;0.50;;;;;;;27.90;43.23;98789.75;5132500;28;20130;-58
2022/06/26 02:04:05;;;;;;;0.73;0.50;;;;;;;27.90;43.24;98791.78;5132206;28;20047;-58
2022/06/26 02:06:31;;;;;;;0.68;0.47;;;;;;;27.89;43.27;98805.03;5132743;27;20099;-58
2022/06/26 02:08:56;;;;;;;0.45;0.40;;;;;;;27.90;43.30;98794.59;5132321;27;20043;-58
2022/06/26 02:14:05;;;;;;;0.40;0.40;;;;;;;27.90;43.33;98803.03;5091322;28;20047;-58
2022/06/26 02:16:31;;;;;;;0.70;0.50;;;;;;;27.89;43.19;98812.69;5091454;28;20036;-59
2022/06/26 02:18:57;;;;;;;1.55;0.60;;;;;;;27.88;43.23;98811.09;5091109;28;20051;-59
2022/06/26 02:21:27;;;;;;;0.43;0.40;;;;;;;27.88;43.37;98814.72;5091279;28;20127;-58
2022/06/26 02:23:56;;;;;;;0.90;0.50;;;;;;;27.88;43.21;98811.91;5090918;28;20518;-59
2022/06/26 02:26:22;;;;;;;0.47;0.47;;;;;;;27.86;43.35;98811.56;5098402;28;20423;-58
2022/06/26 02:28:48;;;;;;;0.70;0.50;;;;;;;27.88;43.35;98811.09;5111639;28;20396;-58
2022/06/26 02:31:14;;;;;;;0.57;0.50;;;;;;;27.88;43.35;98802.69;5111623;28;20423;-58
2022/06/26 02:33:40;;;;;;;0.63;0.50;;;;;;;27.88;43.43;98791.44;5111409;28;20051;-58
2022/06/26 02:36:07;;;;;;;0.60;0.50;;;;;;;27.87;43.27;98799.06;5111385;28;20043;-58
2022/06/26 02:38:33;;;;;;;0.57;0.43;;;;;;;27.87;43.50;98804.69;5111524;28;20069;-58
2022/06/26 02:40:59;;;;;;;0.50;0.50;;;;;;;27.87;43.42;98810.31;5111294;28;20058;-59
2022/06/26 02:43:24;;;;;;;0.77;0.60;;;;;;;27.87;43.48;98813.13;5111186;28;20047;-59
2022/06/26 02:45:55;;;;;;;0.88;0.50;;;;;;;27.87;43.52;98812.34;5111213;28;20134;-59
2022/06/26 02:48:21;;;;;;;0.90;0.63;;;;;;;27.88;43.44;98813.91;5111213;28;20048;-59
2022/06/26 02:50:47;;;;;;;1.27;0.75;;;;;;;27.87;43.51;98818.75;5111064;28;20104;-58
2022/06/26 02:53:13;;;;;;;1.65;0.90;;;;;;;27.86;43.42;98808.75;5110886;28;20044;-58
2022/06/26 02:55:38;;;;;;;1.67;0.90;;;;;;;27.84;43.71;98805.56;5111048;28;20047;-58
2022/06/26 02:58:05;;;;;;;2.45;1.00;;;;;;;27.85;43.55;98793.06;5111183;28;20087;-58
2022/06/26 03:00:30;;;;;;;2.72;1.17;;;;;;;27.85;43.57;98809.16;5111109;28;20462;-58
2022/06/26 03:02:56;;;;;;;2.22;1.00;;;;;;;27.86;43.44;98824.78;5110960;28;20039;-58
2022/06/26 03:05:21;;;;;;;1.83;0.90;;;;;;;27.86;43.70;98817.16;5110912;28;20105;-59
2022/06/26 03:07:46;;;;;;;1.45;0.90;;;;;;;27.86;43.72;98830.41;5111018;28;20051;-58
2022/06/26 03:10:12;;;;;;;1.45;0.90;;;;;;;27.86;43.61;98834.03;5111107;28;20036;-58
2022/06/26 03:12:47;;;;;;;1.13;0.85;;;;;;;27.84;43.79;98844.91;5110981;28;20582;-58
2022/06/26 03:15:13;;;;;;;1.40;0.85;;;;;;;27.84;43.97;98858.97;5110830;28;20105;-58
2022/06/26 03:17:40;;;;;;;2.92;0.90;;;;;;;27.84;44.14;98881.44;5110757;28;20050;-59
2022/06/26 03:20:17;;;;;;;1.33;0.90;;;;;;;27.84;44.11;98884.25;5110809;28;20040;-58
2022/06/26 03:22:43;;;;;;;1.08;0.80;;;;;;;27.85;44.45;98854.13;5111134;28;20055;-58
2022/06/26 03:25:09;;;;;;;1.30;0.80;;;;;;;27.84;44.57;98849.72;5109811;28;20131;-58
2022/06/26 03:27:36;;;;;;;1.13;0.70;;;;;;;27.84;44.65;98853.34;5110863;28;20105;-58
2022/06/26 03:30:03;;;;;;;0.82;0.65;;;;;;;27.84;44.79;98858.97;5110835;28;20074;-59
2022/06/26 03:32:28;;;;;;;0.90;0.70;;;;;;;27.83;44.79;98860.19;5110851;28;20456;-58
2022/06/26 03:34:53;;;;;;;0.65;0.55;;;;;;;27.84;44.88;98873.00;5110562;28;20044;-58
2022/06/26 03:37:19;;;;;;;2.40;0.90;;;;;;;27.83;44.85;98877.06;5110718;28;20039;-58
2022/06/26 03:39:45;;;;;;;1.00;0.57;;;;;;;27.84;44.65;98891.91;5108509;28;20508;-58
2022/06/26 03:42:10;;;;;;;0.90;0.60;;;;;;;27.83;45.11;98885.47;5110380;28;20103;-58
2022/06/26 03:44:36;;;;;;;1.02;0.80;;;;;;;27.83;45.10;98891.09;5092128;28;20043;-59
2022/06/26 03:47:01;;;;;;;1.00;0.63;;;;;;;27.82;45.05;98892.34;5110540;28;20043;-58
2022/06/26 03:49:27;;;;;;;1.27;0.73;;;;;;;27.79;45.25;98893.22;5110200;28;20032;-58
2022/06/26 03:51:52;;;;;;;1.30;0.82;;;;;;;27.80;44.95;98897.59;5110275;28;20495;-58
2022/06/26 03:54:19;;;;;;;0.77;0.60;;;;;;;27.84;45.13;98917.97;5110278;28;20414;-58
2022/06/26 03:56:44;;;;;;;0.80;0.60;;;;;;;27.84;44.85;98914.38;5110401;28;20051;-58
2022/06/26 03:59:10;;;;;;;0.80;0.50;;;;;;;27.82;45.04;98912.00;5110254;28;20044;-58
2022/06/26 04:01:35;;;;;;;1.00;0.60;;;;;;;27.82;45.06;98912.00;5110200;28;20093;-58
2022/06/26 04:04:01;;;;;;;1.17;0.68;;;;;;;27.83;45.14;98916.41;5109905;28;20468;-58
2022/06/26 04:06:26;;;;;;;0.80;0.60;;;;;;;27.84;44.97;98917.97;5109882;28;20040;-58
2022/06/26 04:08:52;;;;;;;1.17;0.70;;;;;;;27.83;44.92;98918.41;5110205;28;20778;-58
2022/06/26 04:11:17;;;;;;;0.82;0.60;;;;;;;27.84;45.09;98915.16;5110021;28;20044;-59
2022/06/26 04:13:43;;;;;;;0.98;0.70;;;;;;;27.84;45.42;98901.13;5110121;28;20054;-58
2022/06/26 04:16:08;;;;;;;0.98;0.63;;;;;;;27.84;45.16;98911.56;5109801;28;20046;-58
2022/06/26 04:18:34;;;;;;;0.80;0.60;;;;;;;27.83;45.14;98916.41;5110001;28;20449;-58
2022/06/26 04:21:00;;;;;;;0.70;0.50;;;;;;;27.84;45.19;98903.13;5109903;28;20139;-58
2022/06/26 04:23:26;;;;;;;0.77;0.50;;;;;;;27.83;45.26;98893.91;5109798;28;20143;-59
2022/06/26 04:25:51;;;;;;;0.75;0.52;;;;;;;27.83;45.09;98888.28;5109758;28;20042;-58
2022/06/26 04:28:17;;;;;;;0.73;0.52;;;;;;;27.84;45.30;98889.09;5109927;28;20039;-58
2022/06/26 04:30:42;;;;;;;0.98;0.60;;;;;;;27.84;45.34;98905.94;5109824;28;20047;-58
2022/06/26 04:33:08;;;;;;;0.93;0.65;;;;;;;27.83;45.64;98910.78;5109839;28;20040;-58
2022/06/26 04:35:34;;;;;;;0.90;0.60;;;;;;;27.84;45.44;98920.00;5109617;28;20092;-58
2022/06/26 04:37:59;;;;;;;0.57;0.50;;;;;;;27.82;45.47;98920.44;5113341;28;20043;-58
2022/06/26 04:40:25;;;;;;;0.70;0.50;;;;;;;27.83;45.26;98922.03;5113743;28;20042;-58
2022/06/26 04:42:50;;;;;;;0.95;0.60;;;;;;;27.82;45.28;98920.44;5113250;28;20043;-58
2022/06/26 04:45:16;;;;;;;0.80;0.55;;;;;;;27.83;45.32;98918.41;5113081;28;20039;-58
2022/06/26 04:47:41;;;;;;;0.50;0.50;;;;;;;27.80;45.31;98917.28;5113423;28;20094;-58
2022/06/26 04:50:08;;;;;;;0.90;0.60;;;;;;;27.83;45.54;98921.22;5113321;28;20527;-58
2022/06/26 04:52:33;;;;;;;1.38;0.75;;;;;;;27.82;45.42;98919.66;5113299;28;20527;-58
2022/06/26 04:54:58;;;;;;;0.77;0.60;;;;;;;27.82;45.27;98914.81;5113104;28;20064;-58
2022/06/26 04:57:25;;;;;;;1.08;0.70;;;;;;;27.81;45.30;98921.69;5113246;28;20414;-58
2022/06/26 04:59:51;;;;;;;0.98;0.60;;;;;;;27.81;45.35;98920.88;5113171;28;20047;-58
2022/06/26 05:02:16;;;;;;;0.68;0.45;;;;;;;27.82;45.28;98919.66;5113033;28;20134;-58
2022/06/26 05:04:42;;;;;;;0.77;0.65;;;;;;;27.82;45.42;98914.81;5113064;28;20050;-58
2022/06/26 05:07:07;;;;;;;1.00;0.60;;;;;;;27.82;45.55;98917.63;5111553;28;20131;-57
2022/06/26 05:09:32;;;;;;;0.90;0.60;;;;;;;27.80;45.51;98922.91;5112992;28;20457;-58
2022/06/26 05:11:59;;;;;;;0.70;0.50;;;;;;;27.81;45.64;98915.25;5113138;28;20050;-58
2022/06/26 05:14:24;;;;;;;1.20;0.70;;;;;;;27.82;45.51;98906.38;5113167;28;20056;-58
2022/06/26 05:16:50;;;;;;;0.98;0.70;;;;;;;27.81;45.93;98918.06;5112656;28;20139;-58
2022/06/26 05:19:16;;;;;;;0.70;0.57;;;;;;;27.82;45.67;98919.66;5094415;28;20406;-58
2022/06/26 05:21:41;;;;;;;1.20;0.80;;;;;;;27.82;45.75;98914.03;5110688;28;20050;-58
2022/06/26 05:24:07;;;;;;;0.95;0.70;;;;;;;27.83;45.67;98919.22;5112671;28;20478;-58
2022/06/26 05:26:33;;;;;;;1.40;0.95;;;;;;;27.83;45.64;98915.63;5112383;28;20070;-58
2022/06/26 05:28:58;;;;;;;1.17;0.80;;;;;;;27.83;45.74;98910.00;5112748;28;20070;-58
2022/06/26 05:31:24;;;;;;;1.05;0.70;;;;;;;27.83;45.99;98913.59;5112802;28;20511;-57
2022/06/26 05:33:50;;;;;;;0.98;0.60;;;;;;;27.82;46.01;98909.19;5112853;28;20560;-57
2022/06/26 05:36:15;;;;;;;1.13;0.70;;;;;;;27.84;46.05;98922.81;5112568;28;20047;-58
2022/06/26 05:38:42;;;;;;;0.70;0.60;;;;;;;27.84;45.87;98923.59;5112507;28;20039;-58
2022/06/26 05:41:08;;;;;;;1.15;0.70;;;;;;;27.83;46.13;98913.59;5112610;28;20043;-58
2022/06/26 05:43:33;;;;;;;0.73;0.52;;;;;;;27.84;46.04;98914.38;5112549;28;20040;-58
2022/06/26 05:45:59;;;;;;;1.02;0.60;;;;;;;27.84;45.81;98908.75;5112157;28;20092;-58
2022/06/26 05:48:26;;;;;;;0.90;0.60;;;;;;;27.84;46.14;98912.34;5111698;28;20130;-58
2022/06/26 05:50:51;;;;;;;0.80;0.70;;;;;;;27.86;45.89;98914.72;5112279;28;20043;-58
2022/06/26 05:53:18;;;;;;;0.73;0.57;;;;;;;27.85;45.80;98907.53;5112211;28;20428;-58
2022/06/26 05:55:43;;;;;;;0.52;0.50;;;;;;;27.84;45.79;98901.13;5112170;28;20052;-58
2022/06/26 05:58:09;;;;;;;1.10;0.50;;;;;;;27.85;45.53;98908.31;5111828;28;20051;-58
2022/06/26 06:00:36;;;;;;;0.90;0.60;;;;;;;27.86;45.65;98901.50;5112141;28;20206;-58
2022/06/26 06:03:02;;;;;;;0.70;0.57;;;;;;;27.86;45.58;98904.31;5110054;28;20491;-58
2022/06/26 06:05:27;;;;;;;0.57;0.55;;;;;;;27.86;45.75;98898.69;5112371;28;20035;-58
2022/06/26 06:07:54;;;;;;;1.42;0.60;;;;;;;27.86;45.64;98909.94;5111772;28;20456;-58
2022/06/26 06:10:19;;;;;;;2.92;0.57;;;;;;;27.85;45.72;98902.69;5112032;28;20039;-58
2022/06/26 06:12:48;;;;;;;0.50;0.43;;;;;;;27.83;45.85;98896.72;5111902;28;20068;-58
2022/06/26 06:15:14;;;;;;;0.50;0.50;;;;;;;27.84;45.66;98898.31;5111926;28;20556;-58
2022/06/26 06:17:44;;;;;;;1.40;0.50;;;;;;;27.86;45.59;98906.28;5111590;28;20123;-58
2022/06/26 06:20:14;;;;;;;0.65;0.52;;;;;;;27.85;45.73;98913.94;5111474;28;20596;-58
2022/06/26 06:22:44;;;;;;;0.80;0.55;;;;;;;27.85;45.48;98907.53;5111562;28;20569;-58
2022/06/26 06:25:10;;;;;;;0.73;0.60;;;;;;;27.83;45.60;98913.59;5111692;28;20123;-58
2022/06/26 06:27:36;;;;;;;0.65;0.52;;;;;;;27.87;45.62;98913.53;5111471;28;20130;-58
2022/06/26 06:30:04;;;;;;;0.90;0.60;;;;;;;27.85;45.44;98913.16;5111799;28;20047;-58
2022/06/26 06:32:30;;;;;;;0.52;0.43;;;;;;;27.86;45.43;98898.69;5111918;28;20074;-59
2022/06/26 06:34:55;;;;;;;0.60;0.50;;;;;;;27.86;45.56;98898.69;5111680;28;20499;-58
2022/06/26 06:37:21;;;;;;;0.40;0.40;;;;;;;27.86;45.34;98900.69;5111502;28;20047;-59
2022/06/26 06:39:46;;;;;;;1.08;0.63;;;;;;;27.84;45.42;98891.91;5111493;28;20055;-58
2022/06/26 06:42:12;;;;;;;0.50;0.43;;;;;;;27.87;45.38;98889.03;5111347;28;20050;-58
2022/06/26 06:44:37;;;;;;;0.63;0.50;;;;;;;27.87;45.28;98889.03;5111543;28;20044;-58
2022/06/26 06:47:03;;;;;;;0.93;0.50;;;;;;;27.88;45.51;98889.81;5111306;28;20048;-58
2022/06/26 06:49:29;;;;;;;0.75;0.50;;;;;;;27.87;45.39;98883.41;5111466;28;20321;-58
2022/06/26 06:51:55;;;;;;;0.80;0.60;;;;;;;27.86;45.52;98898.69;5111448;28;20279;-58
2022/06/26 06:54:21;;;;;;;0.73;0.50;;;;;;;27.88;45.31;98892.63;5111139;28;20038;-58
2022/06/26 06:56:46;;;;;;;0.65;0.55;;;;;;;27.86;45.39;98890.25;5111329;28;20067;-58
2022/06/26 06:59:12;;;;;;;0.45;0.40;;;;;;;27.88;45.45;98887.78;5110136;28;20079;-58
2022/06/26 07:01:37;;;;;;;0.50;0.45;;;;;;;27.87;45.48;98889.03;5111231;28;20407;-58
2022/06/26 07:04:02;;;;;;;0.82;0.50;;;;;;;27.88;45.43;98890.59;5111143;28;20910;-59
2022/06/26 07:06:28;;;;;;;0.90;0.60;;;;;;;27.89;45.38;98882.97;5111076;28;20388;-58
2022/06/26 07:08:53;;;;;;;0.60;0.50;;;;;;;27.88;45.32;98889.81;5110943;28;20063;-58
2022/06/26 07:11:19;;;;;;;0.80;0.50;;;;;;;27.86;45.38;98887.44;5111059;28;20052;-58
2022/06/26 07:13:45;;;;;;;0.60;0.52;;;;;;;27.88;45.39;98881.38;5110986;28;20104;-58
2022/06/26 07:16:11;;;;;;;0.77;0.40;;;;;;;27.89;45.32;98882.97;5111124;28;20510;-58
2022/06/26 07:18:36;;;;;;;0.60;0.40;;;;;;;27.87;45.49;98877.78;5110655;28;20507;-58
2022/06/26 07:21:02;;;;;;;0.93;0.60;;;;;;;27.88;45.55;98870.13;5110891;28;20040;-58
2022/06/26 07:23:27;;;;;;;0.88;0.45;;;;;;;27.90;45.38;98868.47;5110935;28;20039;-58
2022/06/26 07:25:52;;;;;;;0.88;0.60;;;;;;;27.90;45.47;98874.09;5110685;28;20039;-58
2022/06/26 07:28:18;;;;;;;0.60;0.43;;;;;;;27.91;45.44;98878.47;5110572;28;20040;-58
2022/06/26 07:30:43;;;;;;;0.68;0.52;;;;;;;27.89;45.54;98869.69;5110827;28;20051;-58
2022/06/26 07:35:52;;;;;;;0.45;0.45;;;;;;;27.90;45.52;98862.84;5110733;28;20054;-58
2022/06/26 07:38:18;;;;;;;0.70;0.50;;;;;;;27.90;45.53;98868.47;5110417;28;20138;-58
2022/06/26 07:40:44;;;;;;;0.63;0.50;;;;;;;27.89;45.54;98852.81;5110588;28;20036;-58
2022/06/26 07:43:09;;;;;;;0.65;0.50;;;;;;;27.90;45.33;98845.19;5110522;28;20047;-58
2022/06/26 07:45:35;;;;;;;0.57;0.50;;;;;;;27.91;45.67;98844.75;5110403;28;20521;-57
2022/06/26 07:48:01;;;;;;;0.30;0.30;;;;;;;27.89;45.52;98847.19;5110269;28;20455;-58
2022/06/26 07:50:27;;;;;;;0.60;0.50;;;;;;;27.90;45.55;98851.59;5110455;28;20044;-58
2022/06/26 07:52:52;;;;;;;0.55;0.50;;;;;;;27.93;45.47;98847.09;5110639;28;20457;-58
2022/06/26 07:55:18;;;;;;;0.77;0.40;;;;;;;27.95;45.69;98847.47;5110558;28;20380;-58
2022/06/26 07:57:43;;;;;;;0.60;0.50;;;;;;;27.92;45.63;98840.69;5110171;28;20047;-58
2022/06/26 08:00:10;;;;;;;0.60;0.45;;;;;;;27.90;45.57;98837.53;5110139;28;20507;-58
2022/06/26 08:02:35;;;;;;;0.98;0.50;;;;;;;27.94;45.59;98827.00;5110160;28;20055;-58
2022/06/26 08:05:01;;;;;;;0.75;0.50;;;;;;;27.94;45.66;98829.81;5110185;28;20047;-58
2022/06/26 08:07:26;;;;;;;0.75;0.60;;;;;;;27.94;45.53;98829.81;5110049;28;20534;-59
2022/06/26 08:09:52;;;;;;;0.35;0.35;;;;;;;27.94;45.61;98832.63;5109529;28;20039;-58
2022/06/26 08:12:17;;;;;;;0.57;0.50;;;;;;;27.95;45.64;98828.59;5110164;28;20040;-58
2022/06/26 08:14:42;;;;;;;0.50;0.40;;;;;;;27.95;45.79;98822.19;5110250;28;20507;-58
2022/06/26 08:17:08;;;;;;;0.50;0.40;;;;;;;27.95;45.72;98825.78;5110156;28;20051;-58
2022/06/26 08:19:34;;;;;;;0.40;0.40;;;;;;;27.93;45.71;98814.19;5109790;28;20035;-58
2022/06/26 08:22:02;;;;;;;0.70;0.50;;;;;;;27.95;45.75;98816.56;5110010;28;20058;-58
2022/06/26 08:24:32;;;;;;;0.30;0.30;;;;;;;27.95;45.90;98819.38;5109878;28;20062;-58
2022/06/26 08:26:58;;;;;;;0.70;0.50;;;;;;;27.95;45.68;98822.19;5109844;28;20051;-58
2022/06/26 08:29:24;;;;;;;0.40;0.40;;;;;;;27.95;45.88;98811.72;5109644;28;20411;-58
2022/06/26 08:31:50;;;;;;;0.40;0.32;;;;;;;27.94;45.83;98807.34;5109719;28;20054;-58
2022/06/26 08:34:16;;;;;;;0.40;0.32;;;;;;;27.95;45.79;98808.91;5110012;28;20515;-57
2022/06/26 08:36:42;;;;;;;0.40;0.32;;;;;;;27.94;45.91;98803.75;5109873;28;20047;-58
2022/06/26 08:39:07;;;;;;;0.35;0.35;;;;;;;27.96;45.84;98818.94;5109678;28;20380;-58
2022/06/26 08:41:42;;;;;;;0.68;0.50;;;;;;;27.98;45.75;98808.03;5110020;28;20047;-57
2022/06/26 08:44:08;;;;;;;0.30;0.30;;;;;;;27.98;45.73;98802.41;5107898;28;20127;-58
2022/06/26 08:46:42;;;;;;;0.52;0.50;;;;;;;27.98;45.56;98802.41;5109801;28;20100;-58
2022/06/26 08:49:11;;;;;;;0.40;0.40;;;;;;;27.99;45.64;98800.38;5109612;28;20036;-58
2022/06/26 08:51:42;;;;;;;0.60;0.40;;;;;;;27.97;45.49;98792.38;5109594;28;20415;-58
2022/06/26 08:54:14;;;;;;;0.35;0.30;;;;;;;27.99;45.46;98789.13;5107974;28;20042;-58
2022/06/26 08:56:43;;;;;;;0.75;0.47;;;;;;;28.00;45.56;98787.13;5109941;28;20126;-58
2022/06/26 08:59:10;;;;;;;0.20;0.20;;;;;;;28.01;45.54;98781.06;5107523;28;20075;-59
2022/06/26 09:01:36;;;;;;;1.10;0.50;;;;;;;28.02;45.70;98776.25;5109589;28;20388;-58
2022/06/26 09:04:02;;;;;;;0.40;0.32;;;;;;;28.00;45.62;98776.66;5109367;28;20044;-58
2022/06/26 09:06:28;;;;;;;0.52;0.30;;;;;;;28.00;45.67;98775.88;5109543;28;20043;-59
2022/06/26 09:08:53;;;;;;;0.40;0.40;;;;;;;28.00;45.75;98768.22;5109356;28;20441;-59
2022/06/26 09:11:19;;;;;;;0.40;0.40;;;;;;;28.00;45.81;98773.06;5109155;28;20123;-58
2022/06/26 09:13:46;;;;;;;0.65;0.40;;;;;;;28.01;45.87;98777.47;5109107;28;20044;-58
2022/06/26 09:16:14;;;;;;;0.45;0.40;;;;;;;28.02;45.99;98773.44;5108363;28;20048;-58
2022/06/26 09:18:41;;;;;;;0.47;0.40;;;;;;;28.04;46.04;98765.34;5109376;28;20110;-58
2022/06/26 09:21:09;;;;;;;0.50;0.40;;;;;;;28.03;46.00;98769.38;5109090;28;20522;-58
2022/06/26 09:23:36;;;;;;;1.10;0.70;;;;;;;28.03;46.00;98763.75;5112055;28;20051;-59
2022/06/26 09:26:04;;;;;;;0.47;0.40;;;;;;;28.04;46.01;98760.50;5112710;28;20407;-59
2022/06/26 09:28:29;;;;;;;0.40;0.40;;;;;;;28.04;46.02;98762.53;5112661;28;20035;-58
2022/06/26 09:30:57;;;;;;;0.50;0.43;;;;;;;28.04;46.15;98754.88;5112532;28;20040;-58
2022/06/26 09:33:31;;;;;;;0.90;0.50;;;;;;;28.04;45.98;98754.88;5112706;28;20268;-58
2022/06/26 09:35:58;;;;;;;1.23;0.70;;;;;;;28.06;46.09;98754.44;5112666;28;20059;-59
2022/06/26 09:38:26;;;;;;;0.90;0.50;;;;;;;28.05;45.87;98755.66;5112690;28;20055;-58
2022/06/26 09:40:54;;;;;;;0.63;0.40;;;;;;;28.06;46.00;98748.81;5112340;28;20048;-58
2022/06/26 09:43:35;;;;;;;0.52;0.38;;;;;;;28.07;46.22;98750.38;5112436;28;20090;-59
2022/06/26 09:46:06;;;;;;;0.98;0.70;;;;;;;28.07;46.07;98756.00;5110790;28;20042;-58
2022/06/26 09:48:32;;;;;;;0.73;0.50;;;;;;;28.07;46.05;98747.56;5110924;28;20507;-58
2022/06/26 09:50:58;;;;;;;0.50;0.40;;;;;;;28.06;46.09;98748.81;5112378;28;20092;-59
2022/06/26 09:53:25;;;;;;;1.00;0.70;;;;;;;28.07;46.09;98733.50;5112082;28;20035;-58
2022/06/26 09:55:53;;;;;;;0.60;0.47;;;;;;;28.06;46.12;98734.75;5112004;28;20043;-59
2022/06/26 09:58:19;;;;;;;0.50;0.50;;;;;;;28.07;46.20;98727.91;5112202;28;20173;-59
2022/06/26 10:06:27;;;;;;;0.77;0.60;;;;;;;28.06;46.24;98718.66;5112001;28;20117;-58
2022/06/26 10:09:00;;;;;;;0.65;0.50;;;;;;;28.05;46.22;98703.03;5111846;28;20048;-58
2022/06/26 10:11:28;;;;;;;0.77;0.50;;;;;;;28.05;46.29;98702.25;5109367;28;20043;-58
2022/06/26 10:14:13;;;;;;;0.68;0.60;;;;;;;28.04;46.32;98706.28;5112031;28;20077;-58
2022/06/26 10:17:05;;;;;;;0.57;0.40;;;;;;;28.06;46.37;98690.56;5112023;28;20039;-58
2022/06/26 10:19:43;;;;;;;0.57;0.50;;;;;;;28.09;46.27;98691.72;5111962;28;20048;-58
2022/06/26 10:22:09;;;;;;;0.60;0.47;;;;;;;28.08;46.30;98701.38;5111639;28;20052;-59
2022/06/26 10:24:35;;;;;;;0.90;0.70;;;;;;;28.09;46.29;98697.34;5111754;28;20051;-58
2022/06/26 10:27:03;;;;;;;0.93;0.55;;;;;;;28.07;46.28;98689.31;5111654;28;20048;-58
2022/06/26 10:29:39;;;;;;;0.60;0.50;;;;;;;28.10;46.33;98693.28;5112038;28;20039;-59
2022/06/26 10:32:07;;;;;;;1.00;0.60;;;;;;;28.10;46.26;98696.88;5112400;28;20035;-59
2022/06/26 10:34:32;;;;;;;0.75;0.45;;;;;;;28.11;46.33;98687.22;5112446;28;20046;-59
2022/06/26 10:37:15;;;;;;;0.52;0.50;;;;;;;28.10;46.20;98682.03;5112003;28;20036;-58
2022/06/26 10:39:51;;;;;;;0.98;0.60;;;;;;;28.12;46.15;98696.44;5111724;28;20062;-58
2022/06/26 10:45:18;;;;;;;0.65;0.57;;;;;;;28.13;46.18;98684.75;5111799;28;20518;-58
2022/06/26 10:47:52;;;;;;;0.52;0.50;;;;;;;28.14;46.27;98671.47;5110195;28;20047;-58
2022/06/26 10:50:28;;;;;;;0.85;0.55;;;;;;;28.14;46.08;98668.66;5111290;28;20039;-59
2022/06/26 10:53:20;;;;;;;0.82;0.60;;;;;;;28.15;46.17;98659.81;5111155;28;20082;-58
2022/06/26 10:55:51;;;;;;;0.50;0.40;;;;;;;28.14;46.06;98655.38;5109723;28;20083;-58
2022/06/26 10:58:21;;;;;;;0.50;0.50;;;;;;;28.15;46.16;98657.00;5111218;28;20047;-58
2022/06/26 11:00:46;;;;;;;0.60;0.60;;;;;;;28.14;46.08;98654.59;5111336;28;20483;-58
2022/06/26 11:03:17;;;;;;;0.70;0.40;;;;;;;28.16;46.09;98652.16;5111057;28;20054;-58
2022/06/26 11:05:52;;;;;;;0.68;0.60;;;;;;;28.17;46.06;98648.91;5109414;28;20043;-58
2022/06/26 11:08:26;;;;;;;0.52;0.52;;;;;;;28.17;46.08;98648.09;5111240;28;20039;-58
2022/06/26 11:10:52;;;;;;;0.93;0.60;;;;;;;28.17;46.33;98643.28;5111186;28;20089;-58
2022/06/26 11:13:18;;;;;;;0.65;0.52;;;;;;;28.18;46.09;98635.63;5086294;28;20040;-58
2022/06/26 11:15:44;;;;;;;0.55;0.40;;;;;;;28.18;46.32;98633.59;5110951;28;20090;-58
2022/06/26 11:18:09;;;;;;;0.80;0.60;;;;;;;28.18;46.14;98625.16;5110874;28;20039;-58
2022/06/26 11:20:46;;;;;;;0.70;0.50;;;;;;;28.18;46.09;98625.16;5110931;28;20457;-58
2022/06/26 11:23:24;;;;;;;0.75;0.60;;;;;;;28.20;46.07;98633.16;5110694;28;20418;-58
2022/06/26 11:25:54;;;;;;;0.82;0.52;;;;;;;28.22;46.08;98620.25;5110871;28;20542;-58
2022/06/26 11:28:19;;;;;;;0.68;0.50;;;;;;;28.21;46.10;98626.28;5110832;28;20047;-58
2022/06/26 11:30:47;;;;;;;0.73;0.57;;;;;;;28.21;46.19;98624.25;5110687;28;20059;-58
2022/06/26 11:33:12;;;;;;;0.73;0.60;;;;;;;28.23;46.09;98623.84;5110673;28;20441;-58
2022/06/26 11:35:37;;;;;;;0.70;0.50;;;;;;;28.23;46.08;98615.41;5110670;28;20051;-58
2022/06/26 11:38:15;;;;;;;0.70;0.50;;;;;;;28.24;46.25;98611.34;5110616;28;20048;-58
2022/06/26 11:40:42;;;;;;;0.68;0.52;;;;;;;28.22;46.30;98609.00;5110638;28;20046;-58
2022/06/26 11:43:08;;;;;;;0.50;0.40;;;;;;;28.23;46.19;98604.94;5110337;28;20048;-58
2022/06/26 11:45:34;;;;;;;0.50;0.50;;;;;;;28.21;46.21;98593.31;5110020;28;20039;-58